sensor_id;sensor_type;location;lat;lon;timestamp;P1;durP1;ratioP1;P2;durP2;ratioP2
73084;SDS011;62974;49.460;10.892;2023-07-22T00:01:54;2.30;;;1.42;;
73084;SDS011;62974;49.460;10.892;2023-07-22T00:04:23;2.75;;;1.55;;
73084;SDS011;62974;49.460;10.892;2023-07-22T00:06:50;4.47;;;1.52;;
73084;SDS011;62974;49.460;10.892;2023-07-22T00:09:18;2.78;;;1.58;;
73084;SDS011;62974;49.460;10.892;2023-07-22T00:11:46;3.17;;;1.40;;
73084;SDS011;62974;49.460;10.892;2023-07-22T00:14:16;3.53;;;1.67;;
73084;SDS011;62974;49.460;10.892;2023-07-22T00:16:44;3.47;;;1.70;;
73084;SDS011;62974;49.460;10.892;2023-07-22T00:19:11;2.85;;;1.40;;
73084;SDS011;62974;49.460;10.892;2023-07-22T00:21:41;2.75;;;1.65;;
73084;SDS011;62974;49.460;10.892;2023-07-22T00:24:09;2.72;;;1.58;;
73084;SDS011;62974;49.460;10.892;2023-07-22T00:26:37;2.85;;;1.63;;
73084;SDS011;62974;49.460;10.892;2023-07-22T00:29:05;3.00;;;1.40;;
73084;SDS011;62974;49.460;10.892;2023-07-22T00:31:34;3.30;;;1.42;;
73084;SDS011;62974;49.460;10.892;2023-07-22T00:34:01;2.78;;;1.70;;
73084;SDS011;62974;49.460;10.892;2023-07-22T00:36:29;4.35;;;1.83;;
73084;SDS011;62974;49.460;10.892;2023-07-22T00:38:58;2.13;;;1.33;;
73084;SDS011;62974;49.460;10.892;2023-07-22T00:41:25;3.25;;;1.60;;
73084;SDS011;62974;49.460;10.892;2023-07-22T00:43:53;4.13;;;1.73;;
73084;SDS011;62974;49.460;10.892;2023-07-22T00:46:21;2.75;;;1.67;;
73084;SDS011;62974;49.460;10.892;2023-07-22T00:48:48;3.67;;;1.77;;
73084;SDS011;62974;49.460;10.892;2023-07-22T00:51:17;3.08;;;1.73;;
73084;SDS011;62974;49.460;10.892;2023-07-22T00:53:45;2.42;;;1.25;;
73084;SDS011;62974;49.460;10.892;2023-07-22T00:56:14;3.92;;;1.60;;
73084;SDS011;62974;49.460;10.892;2023-07-22T00:58:42;3.05;;;1.52;;
73084;SDS011;62974;49.460;10.892;2023-07-22T01:01:09;3.47;;;1.58;;
73084;SDS011;62974;49.460;10.892;2023-07-22T01:03:37;2.85;;;1.60;;
73084;SDS011;62974;49.460;10.892;2023-07-22T01:06:04;2.33;;;1.27;;
73084;SDS011;62974;49.460;10.892;2023-07-22T01:08:32;2.45;;;1.52;;
73084;SDS011;62974;49.460;10.892;2023-07-22T01:11:00;3.50;;;1.63;;
73084;SDS011;62974;49.460;10.892;2023-07-22T01:13:28;3.15;;;1.65;;
73084;SDS011;62974;49.460;10.892;2023-07-22T01:15:56;3.95;;;1.20;;
73084;SDS011;62974;49.460;10.892;2023-07-22T01:18:24;2.28;;;1.35;;
73084;SDS011;62974;49.460;10.892;2023-07-22T01:20:51;2.72;;;1.67;;
73084;SDS011;62974;49.460;10.892;2023-07-22T01:23:20;3.88;;;2.13;;
73084;SDS011;62974;49.460;10.892;2023-07-22T01:25:48;2.75;;;1.35;;
73084;SDS011;62974;49.460;10.892;2023-07-22T01:28:16;3.92;;;1.58;;
73084;SDS011;62974;49.460;10.892;2023-07-22T01:30:43;4.47;;;1.70;;
73084;SDS011;62974;49.460;10.892;2023-07-22T01:33:11;4.07;;;1.60;;
73084;SDS011;62974;49.460;10.892;2023-07-22T01:35:39;2.25;;;1.30;;
73084;SDS011;62974;49.460;10.892;2023-07-22T01:38:06;4.18;;;1.70;;
73084;SDS011;62974;49.460;10.892;2023-07-22T01:40:36;3.95;;;1.50;;
73084;SDS011;62974;49.460;10.892;2023-07-22T01:43:04;4.13;;;1.80;;
73084;SDS011;62974;49.460;10.892;2023-07-22T01:45:31;3.78;;;1.83;;
73084;SDS011;62974;49.460;10.892;2023-07-22T01:47:59;3.00;;;1.88;;
73084;SDS011;62974;49.460;10.892;2023-07-22T01:50:27;5.63;;;1.80;;
73084;SDS011;62974;49.460;10.892;2023-07-22T01:52:55;4.30;;;2.10;;
73084;SDS011;62974;49.460;10.892;2023-07-22T01:55:22;4.47;;;1.73;;
73084;SDS011;62974;49.460;10.892;2023-07-22T01:57:51;3.58;;;1.70;;
73084;SDS011;62974;49.460;10.892;2023-07-22T02:00:19;3.85;;;2.17;;
73084;SDS011;62974;49.460;10.892;2023-07-22T02:02:47;3.67;;;1.65;;
73084;SDS011;62974;49.460;10.892;2023-07-22T02:05:15;4.15;;;1.63;;
73084;SDS011;62974;49.460;10.892;2023-07-22T02:07:43;3.70;;;2.25;;
73084;SDS011;62974;49.460;10.892;2023-07-22T02:10:10;3.72;;;1.65;;
73084;SDS011;62974;49.460;10.892;2023-07-22T02:12:38;3.40;;;1.80;;
73084;SDS011;62974;49.460;10.892;2023-07-22T02:15:07;3.15;;;1.77;;
73084;SDS011;62974;49.460;10.892;2023-07-22T02:17:36;4.10;;;2.15;;
73084;SDS011;62974;49.460;10.892;2023-07-22T02:20:06;3.58;;;1.77;;
73084;SDS011;62974;49.460;10.892;2023-07-22T02:22:35;4.07;;;1.92;;
73084;SDS011;62974;49.460;10.892;2023-07-22T02:25:03;4.22;;;2.15;;
73084;SDS011;62974;49.460;10.892;2023-07-22T02:27:31;3.63;;;2.20;;
73084;SDS011;62974;49.460;10.892;2023-07-22T02:29:59;8.93;;;2.38;;
73084;SDS011;62974;49.460;10.892;2023-07-22T02:32:28;4.47;;;2.00;;
73084;SDS011;62974;49.460;10.892;2023-07-22T02:34:55;5.15;;;2.30;;
73084;SDS011;62974;49.460;10.892;2023-07-22T02:37:23;4.93;;;1.90;;
73084;SDS011;62974;49.460;10.892;2023-07-22T02:39:51;3.42;;;1.73;;
73084;SDS011;62974;49.460;10.892;2023-07-22T02:42:18;3.13;;;1.85;;
73084;SDS011;62974;49.460;10.892;2023-07-22T02:44:46;5.57;;;2.33;;
73084;SDS011;62974;49.460;10.892;2023-07-22T02:47:14;5.60;;;2.17;;
73084;SDS011;62974;49.460;10.892;2023-07-22T02:49:43;4.65;;;1.85;;
73084;SDS011;62974;49.460;10.892;2023-07-22T02:52:11;3.05;;;1.73;;
73084;SDS011;62974;49.460;10.892;2023-07-22T02:54:39;5.07;;;2.00;;
73084;SDS011;62974;49.460;10.892;2023-07-22T02:57:08;4.07;;;1.85;;
73084;SDS011;62974;49.460;10.892;2023-07-22T02:59:35;4.00;;;2.20;;
73084;SDS011;62974;49.460;10.892;2023-07-22T03:02:03;2.72;;;1.73;;
73084;SDS011;62974;49.460;10.892;2023-07-22T03:04:30;4.30;;;2.20;;
73084;SDS011;62974;49.460;10.892;2023-07-22T03:06:59;3.80;;;1.90;;
73084;SDS011;62974;49.460;10.892;2023-07-22T03:09:27;3.05;;;1.92;;
73084;SDS011;62974;49.460;10.892;2023-07-22T03:11:55;3.45;;;1.90;;
73084;SDS011;62974;49.460;10.892;2023-07-22T03:14:23;4.20;;;1.98;;
73084;SDS011;62974;49.460;10.892;2023-07-22T03:16:51;6.57;;;1.90;;
73084;SDS011;62974;49.460;10.892;2023-07-22T03:19:19;3.05;;;1.90;;
73084;SDS011;62974;49.460;10.892;2023-07-22T03:21:47;5.68;;;1.63;;
73084;SDS011;62974;49.460;10.892;2023-07-22T03:24:16;2.90;;;1.90;;
73084;SDS011;62974;49.460;10.892;2023-07-22T03:26:43;2.97;;;1.80;;
73084;SDS011;62974;49.460;10.892;2023-07-22T03:29:11;3.58;;;1.70;;
73084;SDS011;62974;49.460;10.892;2023-07-22T03:31:39;5.28;;;1.92;;
73084;SDS011;62974;49.460;10.892;2023-07-22T03:34:06;3.58;;;1.92;;
73084;SDS011;62974;49.460;10.892;2023-07-22T03:36:34;2.38;;;1.52;;
73084;SDS011;62974;49.460;10.892;2023-07-22T03:39:01;4.88;;;1.73;;
73084;SDS011;62974;49.460;10.892;2023-07-22T03:41:31;3.53;;;2.00;;
73084;SDS011;62974;49.460;10.892;2023-07-22T03:43:58;4.75;;;2.30;;
73084;SDS011;62974;49.460;10.892;2023-07-22T03:46:26;4.10;;;1.98;;
73084;SDS011;62974;49.460;10.892;2023-07-22T03:48:54;4.20;;;2.03;;
73084;SDS011;62974;49.460;10.892;2023-07-22T03:51:22;3.90;;;2.05;;
73084;SDS011;62974;49.460;10.892;2023-07-22T03:53:49;2.90;;;1.73;;
73084;SDS011;62974;49.460;10.892;2023-07-22T03:56:17;4.53;;;1.77;;
73084;SDS011;62974;49.460;10.892;2023-07-22T03:58:46;2.97;;;1.52;;
73084;SDS011;62974;49.460;10.892;2023-07-22T04:01:16;4.85;;;1.80;;
73084;SDS011;62974;49.460;10.892;2023-07-22T04:03:44;5.57;;;1.90;;
73084;SDS011;62974;49.460;10.892;2023-07-22T04:06:12;4.53;;;1.73;;
73084;SDS011;62974;49.460;10.892;2023-07-22T04:08:40;4.07;;;2.10;;
73084;SDS011;62974;49.460;10.892;2023-07-22T04:11:07;2.40;;;1.42;;
73084;SDS011;62974;49.460;10.892;2023-07-22T04:13:35;2.72;;;1.60;;
73084;SDS011;62974;49.460;10.892;2023-07-22T04:16:04;4.63;;;1.98;;
73084;SDS011;62974;49.460;10.892;2023-07-22T04:18:31;3.25;;;1.92;;
73084;SDS011;62974;49.460;10.892;2023-07-22T04:21:00;5.22;;;2.33;;
73084;SDS011;62974;49.460;10.892;2023-07-22T04:23:28;4.70;;;2.00;;
73084;SDS011;62974;49.460;10.892;2023-07-22T04:25:57;4.55;;;2.15;;
73084;SDS011;62974;49.460;10.892;2023-07-22T04:28:24;3.75;;;2.00;;
73084;SDS011;62974;49.460;10.892;2023-07-22T04:30:55;3.53;;;2.03;;
73084;SDS011;62974;49.460;10.892;2023-07-22T04:33:26;3.97;;;1.80;;
73084;SDS011;62974;49.460;10.892;2023-07-22T04:35:55;2.88;;;1.70;;
73084;SDS011;62974;49.460;10.892;2023-07-22T04:38:27;3.88;;;2.10;;
73084;SDS011;62974;49.460;10.892;2023-07-22T04:40:54;3.42;;;1.83;;
73084;SDS011;62974;49.460;10.892;2023-07-22T04:43:22;4.07;;;1.65;;
73084;SDS011;62974;49.460;10.892;2023-07-22T04:45:50;3.70;;;1.83;;
73084;SDS011;62974;49.460;10.892;2023-07-22T04:48:19;4.57;;;1.73;;
73084;SDS011;62974;49.460;10.892;2023-07-22T04:50:49;4.53;;;1.75;;
73084;SDS011;62974;49.460;10.892;2023-07-22T04:53:17;2.42;;;1.65;;
73084;SDS011;62974;49.460;10.892;2023-07-22T04:55:45;4.95;;;1.73;;
73084;SDS011;62974;49.460;10.892;2023-07-22T04:58:13;2.95;;;1.60;;
73084;SDS011;62974;49.460;10.892;2023-07-22T05:00:40;3.25;;;1.77;;
73084;SDS011;62974;49.460;10.892;2023-07-22T05:03:08;3.38;;;1.90;;
73084;SDS011;62974;49.460;10.892;2023-07-22T05:05:36;3.08;;;1.67;;
73084;SDS011;62974;49.460;10.892;2023-07-22T05:08:05;4.55;;;2.00;;
73084;SDS011;62974;49.460;10.892;2023-07-22T05:10:33;3.45;;;1.70;;
73084;SDS011;62974;49.460;10.892;2023-07-22T05:13:01;4.18;;;2.00;;
73084;SDS011;62974;49.460;10.892;2023-07-22T05:15:28;3.95;;;1.83;;
73084;SDS011;62974;49.460;10.892;2023-07-22T05:17:56;3.30;;;1.80;;
73084;SDS011;62974;49.460;10.892;2023-07-22T05:20:23;5.20;;;2.53;;
73084;SDS011;62974;49.460;10.892;2023-07-22T05:22:51;3.90;;;1.90;;
73084;SDS011;62974;49.460;10.892;2023-07-22T05:25:20;4.57;;;2.08;;
73084;SDS011;62974;49.460;10.892;2023-07-22T05:27:47;5.30;;;2.17;;
73084;SDS011;62974;49.460;10.892;2023-07-22T05:30:15;4.28;;;1.80;;
73084;SDS011;62974;49.460;10.892;2023-07-22T05:33:00;3.78;;;1.90;;
73084;SDS011;62974;49.460;10.892;2023-07-22T05:35:28;5.13;;;1.63;;
73084;SDS011;62974;49.460;10.892;2023-07-22T05:37:56;4.28;;;1.75;;
73084;SDS011;62974;49.460;10.892;2023-07-22T05:40:25;4.40;;;1.77;;
73084;SDS011;62974;49.460;10.892;2023-07-22T05:42:52;3.35;;;2.00;;
73084;SDS011;62974;49.460;10.892;2023-07-22T05:45:20;3.00;;;2.08;;
73084;SDS011;62974;49.460;10.892;2023-07-22T05:47:47;4.10;;;2.17;;
73084;SDS011;62974;49.460;10.892;2023-07-22T05:50:15;3.55;;;1.90;;
73084;SDS011;62974;49.460;10.892;2023-07-22T05:52:43;2.92;;;1.85;;
73084;SDS011;62974;49.460;10.892;2023-07-22T05:57:40;3.00;;;1.65;;
73084;SDS011;62974;49.460;10.892;2023-07-22T06:00:08;3.22;;;1.98;;
73084;SDS011;62974;49.460;10.892;2023-07-22T06:02:39;4.22;;;1.83;;
73084;SDS011;62974;49.460;10.892;2023-07-22T06:05:07;2.83;;;1.98;;
73084;SDS011;62974;49.460;10.892;2023-07-22T06:07:35;3.75;;;1.80;;
73084;SDS011;62974;49.460;10.892;2023-07-22T06:10:03;4.22;;;1.65;;
73084;SDS011;62974;49.460;10.892;2023-07-22T06:12:31;2.97;;;1.70;;
73084;SDS011;62974;49.460;10.892;2023-07-22T06:14:59;3.72;;;2.17;;
73084;SDS011;62974;49.460;10.892;2023-07-22T06:17:27;4.35;;;1.70;;
73084;SDS011;62974;49.460;10.892;2023-07-22T06:19:55;3.05;;;1.90;;
73084;SDS011;62974;49.460;10.892;2023-07-22T06:22:22;4.53;;;1.98;;
73084;SDS011;62974;49.460;10.892;2023-07-22T06:24:50;2.60;;;1.65;;
73084;SDS011;62974;49.460;10.892;2023-07-22T06:29:45;3.17;;;1.67;;
73084;SDS011;62974;49.460;10.892;2023-07-22T06:32:14;4.70;;;1.92;;
73084;SDS011;62974;49.460;10.892;2023-07-22T06:34:42;3.65;;;2.10;;
73084;SDS011;62974;49.460;10.892;2023-07-22T06:37:09;3.65;;;2.03;;
73084;SDS011;62974;49.460;10.892;2023-07-22T06:39:37;3.63;;;2.10;;
73084;SDS011;62974;49.460;10.892;2023-07-22T06:42:05;3.40;;;1.85;;
73084;SDS011;62974;49.460;10.892;2023-07-22T06:44:32;4.18;;;2.08;;
73084;SDS011;62974;49.460;10.892;2023-07-22T06:47:00;4.72;;;2.20;;
73084;SDS011;62974;49.460;10.892;2023-07-22T06:49:29;3.45;;;1.95;;
73084;SDS011;62974;49.460;10.892;2023-07-22T06:51:56;3.92;;;2.40;;
73084;SDS011;62974;49.460;10.892;2023-07-22T06:54:24;4.88;;;2.15;;
73084;SDS011;62974;49.460;10.892;2023-07-22T06:56:51;4.07;;;2.25;;
73084;SDS011;62974;49.460;10.892;2023-07-22T06:59:19;6.13;;;2.50;;
73084;SDS011;62974;49.460;10.892;2023-07-22T07:01:46;3.95;;;2.38;;
73084;SDS011;62974;49.460;10.892;2023-07-22T07:04:14;3.97;;;2.00;;
73084;SDS011;62974;49.460;10.892;2023-07-22T07:06:43;3.92;;;2.20;;
73084;SDS011;62974;49.460;10.892;2023-07-22T07:09:12;3.55;;;2.08;;
73084;SDS011;62974;49.460;10.892;2023-07-22T07:11:39;4.20;;;2.63;;
73084;SDS011;62974;49.460;10.892;2023-07-22T07:14:07;4.47;;;2.58;;
73084;SDS011;62974;49.460;10.892;2023-07-22T07:16:35;3.97;;;2.55;;
73084;SDS011;62974;49.460;10.892;2023-07-22T07:19:02;3.78;;;2.38;;
73084;SDS011;62974;49.460;10.892;2023-07-22T07:21:32;4.47;;;2.50;;
73084;SDS011;62974;49.460;10.892;2023-07-22T07:24:01;4.47;;;2.38;;
73084;SDS011;62974;49.460;10.892;2023-07-22T07:26:28;5.82;;;2.78;;
73084;SDS011;62974;49.460;10.892;2023-07-22T07:28:56;5.13;;;2.85;;
73084;SDS011;62974;49.460;10.892;2023-07-22T07:31:23;4.82;;;2.70;;
73084;SDS011;62974;49.460;10.892;2023-07-22T07:33:51;5.95;;;3.05;;
73084;SDS011;62974;49.460;10.892;2023-07-22T07:36:19;6.85;;;2.78;;
73084;SDS011;62974;49.460;10.892;2023-07-22T07:38:46;4.68;;;2.35;;
73084;SDS011;62974;49.460;10.892;2023-07-22T07:41:15;4.88;;;2.47;;
73084;SDS011;62974;49.460;10.892;2023-07-22T07:43:42;4.15;;;2.17;;
73084;SDS011;62974;49.460;10.892;2023-07-22T07:46:14;3.50;;;2.15;;
73084;SDS011;62974;49.460;10.892;2023-07-22T07:48:44;3.78;;;2.30;;
73084;SDS011;62974;49.460;10.892;2023-07-22T07:51:13;3.80;;;2.33;;
73084;SDS011;62974;49.460;10.892;2023-07-22T07:53:41;5.72;;;2.38;;
73084;SDS011;62974;49.460;10.892;2023-07-22T07:56:10;4.45;;;2.00;;
73084;SDS011;62974;49.460;10.892;2023-07-22T07:58:40;4.43;;;2.20;;
73084;SDS011;62974;49.460;10.892;2023-07-22T08:01:08;8.43;;;3.08;;
73084;SDS011;62974;49.460;10.892;2023-07-22T08:03:36;4.68;;;2.30;;
73084;SDS011;62974;49.460;10.892;2023-07-22T08:06:05;6.00;;;2.97;;
73084;SDS011;62974;49.460;10.892;2023-07-22T08:08:33;5.60;;;2.90;;
73084;SDS011;62974;49.460;10.892;2023-07-22T08:13:29;5.63;;;3.13;;
73084;SDS011;62974;49.460;10.892;2023-07-22T08:18:27;4.20;;;2.28;;
73084;SDS011;62974;49.460;10.892;2023-07-22T08:20:56;4.68;;;2.58;;
73084;SDS011;62974;49.460;10.892;2023-07-22T08:23:24;5.30;;;2.33;;
73084;SDS011;62974;49.460;10.892;2023-07-22T08:25:52;4.35;;;2.67;;
73084;SDS011;62974;49.460;10.892;2023-07-22T08:28:19;5.43;;;2.72;;
73084;SDS011;62974;49.460;10.892;2023-07-22T08:30:47;4.35;;;2.33;;
73084;SDS011;62974;49.460;10.892;2023-07-22T08:33:16;4.28;;;2.70;;
73084;SDS011;62974;49.460;10.892;2023-07-22T08:35:52;5.15;;;2.90;;
73084;SDS011;62974;49.460;10.892;2023-07-22T08:38:20;5.78;;;2.45;;
73084;SDS011;62974;49.460;10.892;2023-07-22T08:40:48;5.35;;;2.58;;
73084;SDS011;62974;49.460;10.892;2023-07-22T08:43:19;4.70;;;2.42;;
73084;SDS011;62974;49.460;10.892;2023-07-22T08:45:47;3.28;;;1.98;;
73084;SDS011;62974;49.460;10.892;2023-07-22T08:48:18;3.25;;;2.08;;
73084;SDS011;62974;49.460;10.892;2023-07-22T08:50:49;6.55;;;2.75;;
73084;SDS011;62974;49.460;10.892;2023-07-22T08:53:20;4.00;;;2.40;;
73084;SDS011;62974;49.460;10.892;2023-07-22T08:55:49;3.33;;;1.92;;
73084;SDS011;62974;49.460;10.892;2023-07-22T08:58:17;5.57;;;2.50;;
73084;SDS011;62974;49.460;10.892;2023-07-22T09:00:45;4.30;;;2.10;;
73084;SDS011;62974;49.460;10.892;2023-07-22T09:03:15;3.55;;;1.98;;
73084;SDS011;62974;49.460;10.892;2023-07-22T09:05:46;5.97;;;2.40;;
73084;SDS011;62974;49.460;10.892;2023-07-22T09:08:14;8.52;;;2.30;;
73084;SDS011;62974;49.460;10.892;2023-07-22T09:10:43;2.75;;;1.60;;
73084;SDS011;62974;49.460;10.892;2023-07-22T09:13:12;4.10;;;1.60;;
73084;SDS011;62974;49.460;10.892;2023-07-22T09:15:40;3.83;;;1.70;;
73084;SDS011;62974;49.460;10.892;2023-07-22T09:20:37;4.70;;;1.90;;
73084;SDS011;62974;49.460;10.892;2023-07-22T09:23:05;3.42;;;1.88;;
73084;SDS011;62974;49.460;10.892;2023-07-22T09:25:40;4.93;;;2.50;;
73084;SDS011;62974;49.460;10.892;2023-07-22T09:28:09;3.78;;;1.90;;
73084;SDS011;62974;49.460;10.892;2023-07-22T09:30:37;4.13;;;2.13;;
73084;SDS011;62974;49.460;10.892;2023-07-22T09:33:07;3.92;;;1.98;;
73084;SDS011;62974;49.460;10.892;2023-07-22T09:35:48;3.42;;;2.25;;
73084;SDS011;62974;49.460;10.892;2023-07-22T09:38:22;5.18;;;2.08;;
73084;SDS011;62974;49.460;10.892;2023-07-22T09:40:51;3.60;;;1.80;;
73084;SDS011;62974;49.460;10.892;2023-07-22T09:43:21;3.70;;;1.80;;
73084;SDS011;62974;49.460;10.892;2023-07-22T09:45:50;3.80;;;2.00;;
73084;SDS011;62974;49.460;10.892;2023-07-22T09:48:20;3.22;;;1.95;;
73084;SDS011;62974;49.460;10.892;2023-07-22T09:50:56;4.72;;;1.95;;
73084;SDS011;62974;49.460;10.892;2023-07-22T09:53:25;4.88;;;2.08;;
73084;SDS011;62974;49.460;10.892;2023-07-22T09:55:52;3.60;;;1.85;;
73084;SDS011;62974;49.460;10.892;2023-07-22T09:58:20;3.38;;;1.70;;
73084;SDS011;62974;49.460;10.892;2023-07-22T10:03:21;5.35;;;1.83;;
73084;SDS011;62974;49.460;10.892;2023-07-22T10:05:57;3.92;;;1.52;;
73084;SDS011;62974;49.460;10.892;2023-07-22T10:08:27;3.95;;;2.30;;
73084;SDS011;62974;49.460;10.892;2023-07-22T10:11:05;3.45;;;1.80;;
73084;SDS011;62974;49.460;10.892;2023-07-22T10:13:34;2.70;;;1.58;;
73084;SDS011;62974;49.460;10.892;2023-07-22T10:16:02;3.58;;;1.65;;
73084;SDS011;62974;49.460;10.892;2023-07-22T10:18:30;5.25;;;1.90;;
73084;SDS011;62974;49.460;10.892;2023-07-22T10:21:00;3.45;;;1.70;;
73084;SDS011;62974;49.460;10.892;2023-07-22T10:23:29;4.30;;;2.08;;
73084;SDS011;62974;49.460;10.892;2023-07-22T10:25:58;3.33;;;1.83;;
73084;SDS011;62974;49.460;10.892;2023-07-22T10:28:26;2.75;;;1.73;;
73084;SDS011;62974;49.460;10.892;2023-07-22T10:30:56;5.15;;;2.22;;
73084;SDS011;62974;49.460;10.892;2023-07-22T10:33:24;3.35;;;1.85;;
73084;SDS011;62974;49.460;10.892;2023-07-22T10:36:03;8.25;;;2.10;;
73084;SDS011;62974;49.460;10.892;2023-07-22T10:41:01;3.50;;;1.77;;
73084;SDS011;62974;49.460;10.892;2023-07-22T10:43:38;3.05;;;1.65;;
73084;SDS011;62974;49.460;10.892;2023-07-22T10:46:07;4.05;;;2.13;;
73084;SDS011;62974;49.460;10.892;2023-07-22T10:48:37;3.95;;;2.15;;
73084;SDS011;62974;49.460;10.892;2023-07-22T10:51:09;3.95;;;1.80;;
73084;SDS011;62974;49.460;10.892;2023-07-22T10:53:40;4.55;;;1.90;;
73084;SDS011;62974;49.460;10.892;2023-07-22T10:56:13;3.10;;;1.70;;
73084;SDS011;62974;49.460;10.892;2023-07-22T11:01:32;3.15;;;1.88;;
73084;SDS011;62974;49.460;10.892;2023-07-22T11:04:05;3.53;;;1.90;;
73084;SDS011;62974;49.460;10.892;2023-07-22T11:06:52;4.07;;;2.17;;
73084;SDS011;62974;49.460;10.892;2023-07-22T11:09:37;3.30;;;1.92;;
73084;SDS011;62974;49.460;10.892;2023-07-22T11:12:09;6.22;;;1.90;;
73084;SDS011;62974;49.460;10.892;2023-07-22T11:14:40;7.50;;;2.38;;
73084;SDS011;62974;49.460;10.892;2023-07-22T11:17:12;4.65;;;2.17;;
73084;SDS011;62974;49.460;10.892;2023-07-22T11:19:39;3.70;;;1.98;;
73084;SDS011;62974;49.460;10.892;2023-07-22T11:22:09;3.35;;;2.03;;
73084;SDS011;62974;49.460;10.892;2023-07-22T11:24:37;5.95;;;2.10;;
73084;SDS011;62974;49.460;10.892;2023-07-22T11:27:05;8.75;;;2.70;;
73084;SDS011;62974;49.460;10.892;2023-07-22T11:29:34;3.33;;;1.85;;
73084;SDS011;62974;49.460;10.892;2023-07-22T11:32:02;5.20;;;2.03;;
73084;SDS011;62974;49.460;10.892;2023-07-22T11:34:32;3.17;;;1.73;;
73084;SDS011;62974;49.460;10.892;2023-07-22T11:36:59;3.10;;;2.13;;
73084;SDS011;62974;49.460;10.892;2023-07-22T11:39:28;3.35;;;1.90;;
73084;SDS011;62974;49.460;10.892;2023-07-22T11:41:59;3.50;;;1.95;;
73084;SDS011;62974;49.460;10.892;2023-07-22T11:44:29;3.53;;;2.00;;
73084;SDS011;62974;49.460;10.892;2023-07-22T11:46:58;5.32;;;2.15;;
73084;SDS011;62974;49.460;10.892;2023-07-22T11:49:27;3.88;;;2.03;;
73084;SDS011;62974;49.460;10.892;2023-07-22T11:51:56;3.25;;;2.00;;
73084;SDS011;62974;49.460;10.892;2023-07-22T11:54:25;3.80;;;1.92;;
73084;SDS011;62974;49.460;10.892;2023-07-22T11:56:55;3.25;;;1.80;;
73084;SDS011;62974;49.460;10.892;2023-07-22T11:59:32;3.55;;;1.63;;
73084;SDS011;62974;49.460;10.892;2023-07-22T12:02:01;4.60;;;2.05;;
73084;SDS011;62974;49.460;10.892;2023-07-22T12:04:31;4.57;;;2.10;;
73084;SDS011;62974;49.460;10.892;2023-07-22T12:07:00;3.22;;;1.55;;
73084;SDS011;62974;49.460;10.892;2023-07-22T12:11:56;3.10;;;1.45;;
73084;SDS011;62974;49.460;10.892;2023-07-22T12:14:32;4.93;;;2.65;;
73084;SDS011;62974;49.460;10.892;2023-07-22T12:17:01;4.15;;;2.53;;
73084;SDS011;62974;49.460;10.892;2023-07-22T12:19:29;3.88;;;2.25;;
73084;SDS011;62974;49.460;10.892;2023-07-22T12:21:57;4.07;;;2.05;;
73084;SDS011;62974;49.460;10.892;2023-07-22T12:24:24;3.45;;;2.00;;
73084;SDS011;62974;49.460;10.892;2023-07-22T12:26:53;4.13;;;2.17;;
73084;SDS011;62974;49.460;10.892;2023-07-22T12:29:23;3.60;;;1.88;;
73084;SDS011;62974;49.460;10.892;2023-07-22T12:31:51;4.65;;;2.13;;
73084;SDS011;62974;49.460;10.892;2023-07-22T12:34:19;4.20;;;2.03;;
73084;SDS011;62974;49.460;10.892;2023-07-22T12:36:47;3.40;;;1.73;;
73084;SDS011;62974;49.460;10.892;2023-07-22T12:41:42;4.05;;;1.90;;
73084;SDS011;62974;49.460;10.892;2023-07-22T12:44:10;3.10;;;1.70;;
73084;SDS011;62974;49.460;10.892;2023-07-22T12:46:39;2.72;;;1.50;;
73084;SDS011;62974;49.460;10.892;2023-07-22T12:49:06;2.20;;;1.67;;
73084;SDS011;62974;49.460;10.892;2023-07-22T12:51:34;2.40;;;1.55;;
73084;SDS011;62974;49.460;10.892;2023-07-22T12:54:01;3.20;;;1.73;;
73084;SDS011;62974;49.460;10.892;2023-07-22T12:56:30;1.92;;;1.25;;
73084;SDS011;62974;49.460;10.892;2023-07-22T12:58:57;2.10;;;1.50;;
73084;SDS011;62974;49.460;10.892;2023-07-22T13:01:25;3.25;;;1.60;;
73084;SDS011;62974;49.460;10.892;2023-07-22T13:03:54;2.85;;;1.50;;
73084;SDS011;62974;49.460;10.892;2023-07-22T13:06:22;2.63;;;1.55;;
73084;SDS011;62974;49.460;10.892;2023-07-22T13:08:49;4.25;;;1.67;;
73084;SDS011;62974;49.460;10.892;2023-07-22T13:11:17;2.97;;;1.70;;
73084;SDS011;62974;49.460;10.892;2023-07-22T13:13:45;2.25;;;1.40;;
73084;SDS011;62974;49.460;10.892;2023-07-22T13:16:12;2.83;;;1.40;;
73084;SDS011;62974;49.460;10.892;2023-07-22T13:18:40;3.05;;;1.50;;
73084;SDS011;62974;49.460;10.892;2023-07-22T13:21:09;3.38;;;1.55;;
73084;SDS011;62974;49.460;10.892;2023-07-22T13:23:36;2.63;;;1.60;;
73084;SDS011;62974;49.460;10.892;2023-07-22T13:26:04;5.85;;;1.60;;
73084;SDS011;62974;49.460;10.892;2023-07-22T13:28:32;2.72;;;1.50;;
73084;SDS011;62974;49.460;10.892;2023-07-22T13:31:00;2.28;;;1.48;;
73084;SDS011;62974;49.460;10.892;2023-07-22T13:33:28;3.90;;;1.45;;
73084;SDS011;62974;49.460;10.892;2023-07-22T13:35:56;2.88;;;1.52;;
73084;SDS011;62974;49.460;10.892;2023-07-22T13:38:25;2.65;;;1.15;;
73084;SDS011;62974;49.460;10.892;2023-07-22T13:40:52;3.72;;;1.27;;
73084;SDS011;62974;49.460;10.892;2023-07-22T13:43:20;4.00;;;1.40;;
73084;SDS011;62974;49.460;10.892;2023-07-22T13:45:48;2.30;;;1.40;;
73084;SDS011;62974;49.460;10.892;2023-07-22T13:48:15;2.90;;;1.60;;
73084;SDS011;62974;49.460;10.892;2023-07-22T13:50:43;2.55;;;1.42;;
73084;SDS011;62974;49.460;10.892;2023-07-22T13:53:10;3.30;;;1.30;;
73084;SDS011;62974;49.460;10.892;2023-07-22T13:55:39;3.17;;;1.55;;
73084;SDS011;62974;49.460;10.892;2023-07-22T13:58:07;3.10;;;1.50;;
73084;SDS011;62974;49.460;10.892;2023-07-22T14:00:34;2.65;;;1.45;;
73084;SDS011;62974;49.460;10.892;2023-07-22T14:03:02;1.48;;;1.08;;
73084;SDS011;62974;49.460;10.892;2023-07-22T14:07:57;1.48;;;0.95;;
73084;SDS011;62974;49.460;10.892;2023-07-22T14:10:25;2.63;;;1.23;;
73084;SDS011;62974;49.460;10.892;2023-07-22T14:12:54;3.83;;;1.40;;
73084;SDS011;62974;49.460;10.892;2023-07-22T14:15:21;4.03;;;1.35;;
73084;SDS011;62974;49.460;10.892;2023-07-22T14:17:49;1.70;;;1.02;;
73084;SDS011;62974;49.460;10.892;2023-07-22T14:20:16;2.83;;;1.45;;
73084;SDS011;62974;49.460;10.892;2023-07-22T14:22:45;3.25;;;1.33;;
73084;SDS011;62974;49.460;10.892;2023-07-22T14:25:16;2.22;;;1.38;;
73084;SDS011;62974;49.460;10.892;2023-07-22T14:27:45;2.03;;;1.20;;
73084;SDS011;62974;49.460;10.892;2023-07-22T14:30:14;2.22;;;1.20;;
73084;SDS011;62974;49.460;10.892;2023-07-22T14:32:41;2.95;;;1.50;;
73084;SDS011;62974;49.460;10.892;2023-07-22T14:35:09;2.55;;;1.40;;
73084;SDS011;62974;49.460;10.892;2023-07-22T14:37:36;3.70;;;1.30;;
73084;SDS011;62974;49.460;10.892;2023-07-22T14:40:05;2.80;;;1.42;;
73084;SDS011;62974;49.460;10.892;2023-07-22T14:42:35;3.15;;;1.23;;
73084;SDS011;62974;49.460;10.892;2023-07-22T14:45:02;2.88;;;1.30;;
73084;SDS011;62974;49.460;10.892;2023-07-22T14:47:32;2.60;;;1.40;;
73084;SDS011;62974;49.460;10.892;2023-07-22T14:50:01;2.78;;;1.27;;
73084;SDS011;62974;49.460;10.892;2023-07-22T14:54:56;4.60;;;1.20;;
73084;SDS011;62974;49.460;10.892;2023-07-22T14:57:24;2.67;;;1.40;;
73084;SDS011;62974;49.460;10.892;2023-07-22T14:59:55;2.58;;;1.08;;
73084;SDS011;62974;49.460;10.892;2023-07-22T15:02:23;1.67;;;1.02;;
73084;SDS011;62974;49.460;10.892;2023-07-22T15:04:52;2.10;;;1.20;;
73084;SDS011;62974;49.460;10.892;2023-07-22T15:07:20;2.10;;;1.00;;
73084;SDS011;62974;49.460;10.892;2023-07-22T15:09:49;2.92;;;1.45;;
73084;SDS011;62974;49.460;10.892;2023-07-22T15:12:16;1.80;;;1.05;;